Time;durP1;ratioP1;P1;durP2;ratioP2;P2;SDS_P1;SDS_P2;PMS_P1;PMS_P2;Temp;Humidity;BMP_temperature;BMP_pressure;BME280_temperature;BME280_humidity;BME280_pressure;Samples;Min_cycle;Max_cycle;Signal;HPM_P1;HPM_P2
2023/07/17 00:00:48;;;;;;;12.93;5.38;;;18.30;99.90;;;;;;5062937;28;20228;-63
2023/07/17 00:03:16;;;;;;;8.25;5.43;;;18.20;99.90;;;;;;5064104;28;20247;-63
2023/07/17 00:05:46;;;;;;;19.20;5.88;;;18.20;99.90;;;;;;5055279;28;20201;-63
2023/07/17 00:08:14;;;;;;;9.05;5.07;;;18.10;99.90;;;;;;5056082;28;20259;-63
2023/07/17 00:10:42;;;;;;;9.93;4.90;;;18.10;99.90;;;;;;5062940;28;20742;-63
2023/07/17 00:13:10;;;;;;;7.05;4.82;;;18.00;99.90;;;;;;5067669;28;20244;-63
2023/07/17 00:15:38;;;;;;;11.85;4.97;;;18.00;99.90;;;;;;5057316;28;20653;-63
2023/07/17 00:18:06;;;;;;;9.07;4.93;;;18.00;99.90;;;;;;5060540;28;20312;-63
2023/07/17 00:20:34;;;;;;;15.88;5.43;;;18.00;99.90;;;;;;5062492;28;20203;-63
2023/07/17 00:23:03;;;;;;;8.13;5.15;;;18.00;99.90;;;;;;5062086;28;20225;-63
2023/07/17 00:25:35;;;;;;;6.30;4.65;;;18.00;99.90;;;;;;5070505;28;20205;-63
2023/07/17 00:28:03;;;;;;;5.57;4.75;;;17.90;99.90;;;;;;5058285;28;20252;-63
2023/07/17 00:30:31;;;;;;;7.25;5.05;;;17.90;99.90;;;;;;5063614;28;20274;-63
2023/07/17 00:32:59;;;;;;;8.48;5.10;;;17.80;99.90;;;;;;5072963;28;20252;-63
2023/07/17 00:35:27;;;;;;;6.00;4.88;;;17.80;99.90;;;;;;5059151;28;20276;-63
2023/07/17 00:37:55;;;;;;;7.40;4.93;;;17.80;99.90;;;;;;5064090;28;20225;-63
2023/07/17 00:40:24;;;;;;;11.77;5.38;;;17.80;99.90;;;;;;5064853;28;20317;-63
2023/07/17 00:42:57;;;;;;;10.15;4.97;;;17.80;99.90;;;;;;5063355;28;20205;-63
2023/07/17 00:45:25;;;;;;;9.23;4.40;;;17.70;99.90;;;;;;5064648;28;20703;-62
2023/07/17 00:47:53;;;;;;;10.18;5.10;;;17.70;99.90;;;;;;5064003;28;20890;-63
2023/07/17 00:50:21;;;;;;;12.18;4.78;;;17.70;99.90;;;;;;5057992;28;20225;-62
2023/07/17 00:52:49;;;;;;;7.45;4.65;;;17.70;99.90;;;;;;5058458;28;20202;-63
2023/07/17 00:55:17;;;;;;;9.13;4.88;;;17.60;99.90;;;;;;5067956;28;20247;-63
2023/07/17 00:57:46;;;;;;;6.60;4.40;;;17.60;99.90;;;;;;5058717;28;20696;-62
2023/07/17 01:00:15;;;;;;;6.68;4.25;;;17.70;99.90;;;;;;5067739;28;20246;-62
2023/07/17 01:02:43;;;;;;;5.78;5.00;;;17.70;99.90;;;;;;5056764;28;20233;-62
2023/07/17 01:05:11;;;;;;;7.75;4.60;;;17.60;99.90;;;;;;5051559;28;20221;-63
2023/07/17 01:07:39;;;;;;;10.27;4.78;;;17.60;99.90;;;;;;5054670;28;20218;-62
2023/07/17 01:10:08;;;;;;;7.60;4.82;;;17.60;99.90;;;;;;5059868;28;20225;-62
2023/07/17 01:12:36;;;;;;;9.48;4.97;;;17.60;99.90;;;;;;5058227;28;20209;-63
2023/07/17 01:15:06;;;;;;;8.10;4.65;;;17.60;99.90;;;;;;5052420;28;20208;-63
2023/07/17 01:17:34;;;;;;;11.27;5.65;;;17.60;99.90;;;;;;5057701;28;20225;-63
2023/07/17 01:20:05;;;;;;;11.63;4.78;;;17.50;99.90;;;;;;5053081;28;20664;-62
2023/07/17 01:22:36;;;;;;;5.72;4.50;;;17.50;99.90;;;;;;5058475;28;20210;-62
2023/07/17 01:25:07;;;;;;;5.22;4.72;;;17.40;99.90;;;;;;5054033;28;20672;-62
2023/07/17 01:27:35;;;;;;;5.63;4.93;;;17.40;99.90;;;;;;5059287;28;20279;-63
2023/07/17 01:30:04;;;;;;;8.38;5.32;;;17.30;99.90;;;;;;5059098;28;20263;-63
2023/07/17 01:32:33;;;;;;;10.35;4.80;;;17.30;99.90;;;;;;5064883;28;20213;-63
2023/07/17 01:35:01;;;;;;;10.10;5.10;;;17.30;99.90;;;;;;5067937;28;20678;-63
2023/07/17 01:37:28;;;;;;;8.00;5.18;;;17.30;99.90;;;;;;5059127;28;20288;-63
2023/07/17 01:39:56;;;;;;;5.80;4.78;;;17.30;99.90;;;;;;5051447;28;20853;-63
2023/07/17 01:42:26;;;;;;;9.55;5.15;;;17.30;99.90;;;;;;5051847;28;20210;-62
2023/07/17 01:44:54;;;;;;;7.88;5.18;;;17.30;99.90;;;;;;5050735;28;20201;-63
2023/07/17 01:47:22;;;;;;;9.07;5.32;;;17.30;99.90;;;;;;5057444;28;20225;-63
2023/07/17 01:49:51;;;;;;;9.57;4.47;;;17.30;99.90;;;;;;5058467;28;20209;-62
2023/07/17 01:52:19;;;;;;;8.98;4.40;;;17.30;99.90;;;;;;5052029;28;20253;-63
2023/07/17 01:54:47;;;;;;;6.72;4.90;;;17.30;99.90;;;;;;5049186;28;20258;-63
2023/07/17 01:57:15;;;;;;;9.30;4.78;;;17.30;99.90;;;;;;5050827;28;20230;-63
2023/07/17 01:59:52;;;;;;;7.75;4.95;;;17.30;99.90;;;;;;5104114;22;20324;-76
2023/07/17 02:02:21;;;;;;;8.38;4.75;;;17.30;99.90;;;;;;5087666;28;20224;-76
2023/07/17 02:04:53;;;;;;;7.13;5.00;;;17.20;99.90;;;;;;5091394;28;20214;-76
2023/07/17 02:07:21;;;;;;;12.63;5.40;;;17.20;99.90;;;;;;5073722;28;20191;-76
2023/07/17 02:09:59;;;;;;;11.52;5.07;;;17.20;99.90;;;;;;5073290;28;20229;-79
2023/07/17 02:12:28;;;;;;;6.53;4.72;;;17.10;99.90;;;;;;5076657;28;20256;-80
2023/07/17 02:15:00;;;;;;;6.70;4.72;;;17.00;99.90;;;;;;5078394;28;20213;-80
2023/07/17 02:17:28;;;;;;;6.05;5.30;;;17.00;99.90;;;;;;5074803;28;20237;-76
2023/07/17 02:19:56;;;;;;;7.05;5.10;;;17.00;99.90;;;;;;5073612;28;20539;-78
2023/07/17 02:22:28;;;;;;;7.82;5.15;;;17.00;99.90;;;;;;5073101;28;20300;-76
2023/07/17 02:25:00;;;;;;;5.30;4.70;;;16.90;99.90;;;;;;5073351;28;20205;-77
2023/07/17 02:27:29;;;;;;;11.20;5.05;;;16.80;99.90;;;;;;5073568;28;20623;-77
2023/07/17 02:29:58;;;;;;;6.72;4.97;;;16.80;99.90;;;;;;5072896;28;20552;-76
2023/07/17 02:32:32;;;;;;;7.22;5.13;;;16.80;99.90;;;;;;5066640;28;20217;-76
2023/07/17 02:35:01;;;;;;;9.05;4.65;;;16.70;99.90;;;;;;5068099;28;20197;-76
2023/07/17 02:37:29;;;;;;;6.45;4.97;;;16.70;99.90;;;;;;5065325;28;20587;-76
2023/07/17 02:39:57;;;;;;;7.95;5.05;;;16.70;99.90;;;;;;5055863;28;20209;-77
2023/07/17 02:42:29;;;;;;;5.55;4.60;;;16.70;99.90;;;;;;5064343;28;20232;-75
2023/07/17 02:44:58;;;;;;;5.28;4.45;;;16.60;99.90;;;;;;5068112;28;20193;-76
2023/07/17 02:47:26;;;;;;;8.50;4.93;;;16.50;99.90;;;;;;5061113;28;20232;-76
2023/07/17 02:49:57;;;;;;;8.70;4.32;;;16.50;99.90;;;;;;5072422;28;20733;-76
2023/07/17 02:52:25;;;;;;;8.98;5.15;;;16.40;99.90;;;;;;5069091;22;20237;-62
2023/07/17 02:54:53;;;;;;;9.75;5.00;;;16.40;99.90;;;;;;5047967;28;20197;-61
2023/07/17 02:57:21;;;;;;;6.70;5.00;;;16.30;99.90;;;;;;5049089;28;20583;-62
2023/07/17 02:59:49;;;;;;;6.45;5.00;;;16.30;99.90;;;;;;5050946;28;20226;-61
2023/07/17 03:02:17;;;;;;;5.53;4.70;;;16.30;99.90;;;;;;5048643;28;20233;-64
2023/07/17 03:04:45;;;;;;;8.27;5.28;;;16.20;99.90;;;;;;5050138;28;20233;-62
2023/07/17 03:07:15;;;;;;;8.88;5.22;;;16.10;99.90;;;;;;5044613;28;20238;-61
2023/07/17 03:09:42;;;;;;;8.45;5.00;;;16.00;99.90;;;;;;5049603;28;20265;-62
2023/07/17 03:12:10;;;;;;;7.57;4.85;;;16.00;99.90;;;;;;5050890;28;20775;-62
2023/07/17 03:14:38;;;;;;;6.07;4.53;;;16.00;99.90;;;;;;5049652;28;20248;-62
2023/07/17 03:17:06;;;;;;;6.05;4.70;;;16.00;99.90;;;;;;5045093;28;20289;-62
2023/07/17 03:19:34;;;;;;;6.78;4.68;;;16.00;99.90;;;;;;5049924;28;20744;-62
2023/07/17 03:22:02;;;;;;;8.95;4.78;;;16.00;99.90;;;;;;5042297;28;20241;-62
2023/07/17 03:24:31;;;;;;;9.32;5.28;;;15.90;99.90;;;;;;5049209;28;20233;-62
2023/07/17 03:26:59;;;;;;;6.47;4.57;;;15.90;99.90;;;;;;5049717;28;20241;-62
2023/07/17 03:29:27;;;;;;;8.50;5.00;;;15.90;99.90;;;;;;5051025;28;20249;-62
2023/07/17 03:31:55;;;;;;;9.98;5.63;;;15.90;99.90;;;;;;5045935;28;20304;-62
2023/07/17 03:34:23;;;;;;;5.38;4.88;;;15.90;99.90;;;;;;5043481;28;20198;-62
2023/07/17 03:36:51;;;;;;;5.70;4.32;;;15.90;99.90;;;;;;5048079;28;20885;-62
2023/07/17 03:39:19;;;;;;;10.70;5.30;;;15.90;99.90;;;;;;5051227;28;20254;-63
2023/07/17 03:41:48;;;;;;;7.75;5.43;;;15.90;99.90;;;;;;5049586;28;20197;-62
2023/07/17 03:44:16;;;;;;;6.20;5.05;;;15.80;99.90;;;;;;5045815;28;20294;-63
2023/07/17 03:46:44;;;;;;;8.02;5.18;;;15.80;99.90;;;;;;5052473;28;20263;-63
2023/07/17 03:49:12;;;;;;;7.07;4.97;;;15.80;99.90;;;;;;5049965;28;20602;-62
2023/07/17 03:51:40;;;;;;;6.90;4.80;;;15.70;99.90;;;;;;5044212;28;20261;-62
2023/07/17 03:54:07;;;;;;;8.40;5.07;;;15.70;99.90;;;;;;5053658;28;20633;-62
2023/07/17 03:56:39;;;;;;;7.10;5.15;;;15.70;99.90;;;;;;5052704;28;20638;-62
2023/07/17 03:59:08;;;;;;;9.50;5.60;;;15.70;99.90;;;;;;5053091;28;20753;-62
2023/07/17 04:01:36;;;;;;;7.30;4.82;;;15.70;99.90;;;;;;5050892;28;20201;-62
2023/07/17 04:04:05;;;;;;;7.63;4.75;;;15.70;99.90;;;;;;5054921;28;20237;-62
2023/07/17 04:06:33;;;;;;;5.82;4.80;;;15.70;99.90;;;;;;5054353;28;20664;-62
2023/07/17 04:09:02;;;;;;;10.93;5.15;;;15.70;99.90;;;;;;5054723;28;20270;-62
2023/07/17 04:11:31;;;;;;;6.30;4.90;;;15.80;99.90;;;;;;5054619;28;20233;-62
2023/07/17 04:13:59;;;;;;;8.73;5.30;;;15.70;99.90;;;;;;5038580;28;20209;-62
2023/07/17 04:16:29;;;;;;;8.50;5.47;;;15.70;99.90;;;;;;5052730;28;20289;-63
2023/07/17 04:18:57;;;;;;;6.68;4.50;;;15.70;99.90;;;;;;5051669;28;20245;-61
2023/07/17 04:21:25;;;;;;;4.40;3.50;;;15.80;99.90;;;;;;5052923;28;20207;-60
2023/07/17 04:23:53;;;;;;;4.25;3.85;;;16.30;99.90;;;;;;5050155;28;20321;-61
2023/07/17 04:26:21;;;;;;;4.53;3.55;;;17.00;99.90;;;;;;5051069;28;20241;-61
2023/07/17 04:28:49;;;;;;;8.65;4.43;;;17.70;99.90;;;;;;5055322;28;20264;-61
2023/07/17 04:31:17;;;;;;;7.13;3.78;;;18.20;99.90;;;;;;5054475;28;20247;-61
2023/07/17 04:33:47;;;;;;;4.20;3.80;;;18.50;99.90;;;;;;5052373;28;20225;-61
2023/07/17 04:36:15;;;;;;;6.18;4.53;;;18.70;99.90;;;;;;5053284;28;20247;-61
2023/07/17 04:38:43;;;;;;;15.73;6.18;;;19.00;99.90;;;;;;5052374;28;20225;-61
2023/07/17 04:41:11;;;;;;;23.05;7.07;;;19.00;99.90;;;;;;5051182;28;20285;-61
2023/07/17 04:43:39;;;;;;;13.48;5.40;;;19.20;99.90;;;;;;5052837;28;20226;-61
2023/07/17 04:46:07;;;;;;;10.85;5.10;;;19.30;99.90;;;;;;5053851;28;20709;-61
2023/07/17 04:48:35;;;;;;;6.30;4.40;;;19.30;99.90;;;;;;5051771;28;20228;-61
2023/07/17 04:51:04;;;;;;;12.70;4.32;;;19.40;99.90;;;;;;5053337;28;20248;-61
2023/07/17 04:53:33;;;;;;;8.25;4.00;;;19.50;99.90;;;;;;5051751;28;20316;-61
2023/07/17 04:56:01;;;;;;;5.35;3.92;;;19.50;99.90;;;;;;5048493;28;20264;-61
2023/07/17 04:58:32;;;;;;;8.40;4.53;;;19.50;99.90;;;;;;5049525;28;20222;-61
2023/07/17 05:01:00;;;;;;;5.32;4.43;;;19.50;99.90;;;;;;5054026;28;20314;-61
2023/07/17 05:03:28;;;;;;;6.32;3.95;;;19.40;99.90;;;;;;5054010;28;20202;-61
2023/07/17 05:05:56;;;;;;;10.88;4.30;;;19.40;99.90;;;;;;5052647;28;20209;-61
2023/07/17 05:08:26;;;;;;;3.92;3.45;;;19.40;99.90;;;;;;5053232;28;20226;-61
2023/07/17 05:10:55;;;;;;;6.22;4.15;;;19.50;99.90;;;;;;5053496;28;20197;-61
2023/07/17 05:13:23;;;;;;;4.18;3.80;;;19.50;99.90;;;;;;5053571;28;20320;-61
2023/07/17 05:15:51;;;;;;;8.65;3.90;;;19.50;99.90;;;;;;5053115;28;20236;-61
2023/07/17 05:18:18;;;;;;;5.80;3.80;;;19.50;99.90;;;;;;5053701;28;20257;-61
2023/07/17 05:20:47;;;;;;;6.28;4.32;;;19.40;99.90;;;;;;5052657;28;20240;-63
2023/07/17 05:23:15;;;;;;;4.15;3.67;;;19.20;99.90;;;;;;5053608;28;20202;-60
2023/07/17 05:25:53;;;;;;;4.10;3.78;;;19.10;99.90;;;;;;5053102;28;20209;-60
2023/07/17 05:28:21;;;;;;;4.68;3.72;;;19.00;99.90;;;;;;5052843;28;20730;-60
2023/07/17 05:30:51;;;;;;;7.40;4.32;;;19.00;99.90;;;;;;5053221;28;20201;-60
2023/07/17 05:33:19;;;;;;;4.15;3.83;;;19.00;99.90;;;;;;5053047;28;20270;-60
2023/07/17 05:35:47;;;;;;;6.03;4.15;;;19.00;99.90;;;;;;5053145;28;20206;-60
2023/07/17 05:38:15;;;;;;;6.60;3.70;;;19.00;99.90;;;;;;5053216;28;20260;-60
2023/07/17 05:40:44;;;;;;;13.63;4.53;;;19.00;99.90;;;;;;5053297;28;20474;-60
2023/07/17 05:43:12;;;;;;;9.68;4.50;;;19.00;99.90;;;;;;5053433;28;20206;-60
2023/07/17 05:45:40;;;;;;;7.90;5.00;;;19.00;99.90;;;;;;5052461;28;20666;-60
2023/07/17 05:48:08;;;;;;;11.70;4.68;;;19.00;99.90;;;;;;5052938;28;20227;-60
2023/07/17 05:50:36;;;;;;;15.82;4.60;;;19.10;99.90;;;;;;5052683;28;20208;-59
2023/07/17 05:53:04;;;;;;;8.10;4.45;;;19.10;99.90;;;;;;5052736;28;20307;-60
2023/07/17 05:55:32;;;;;;;8.25;4.97;;;19.20;99.90;;;;;;5052606;28;20324;-60
2023/07/17 05:58:01;;;;;;;12.38;4.78;;;19.30;99.90;;;;;;5036567;28;20318;-59
2023/07/17 06:00:29;;;;;;;11.82;4.57;;;19.40;99.90;;;;;;5052718;28;20201;-60
2023/07/17 06:02:57;;;;;;;4.65;4.20;;;19.40;99.90;;;;;;5052730;28;20676;-59
2023/07/17 06:05:25;;;;;;;8.90;4.63;;;19.40;99.90;;;;;;5052511;28;20650;-59
2023/07/17 06:07:53;;;;;;;6.75;4.75;;;19.40;99.90;;;;;;5051307;28;20271;-58
2023/07/17 06:10:21;;;;;;;11.05;5.07;;;19.40;99.90;;;;;;5052615;28;20584;-60
2023/07/17 06:12:49;;;;;;;8.20;4.55;;;19.50;99.90;;;;;;5052312;28;20255;-59
2023/07/17 06:15:19;;;;;;;6.38;4.13;;;19.70;99.90;;;;;;5052589;28;20201;-60
2023/07/17 06:17:47;;;;;;;9.57;4.22;;;19.80;99.90;;;;;;5052739;28;20296;-60
2023/07/17 06:20:15;;;;;;;6.85;4.53;;;19.80;99.90;;;;;;5052196;28;20201;-60
2023/07/17 06:22:43;;;;;;;9.00;4.60;;;19.80;99.90;;;;;;5052401;28;20227;-59
2023/07/17 06:25:11;;;;;;;7.45;4.75;;;19.80;99.90;;;;;;5051824;28;20215;-60
2023/07/17 06:27:39;;;;;;;8.85;5.03;;;19.80;99.90;;;;;;5051692;28;20232;-58
2023/07/17 06:30:08;;;;;;;7.95;4.38;;;19.80;99.90;;;;;;5051869;28;20754;-59
2023/07/17 06:32:38;;;;;;;6.90;5.20;;;19.80;99.90;;;;;;5051880;28;20232;-58
2023/07/17 06:35:06;;;;;;;9.90;5.07;;;19.80;99.90;;;;;;5051421;28;20197;-59
2023/07/17 06:37:34;;;;;;;6.22;4.50;;;19.90;99.90;;;;;;5051531;28;20550;-59
2023/07/17 06:40:03;;;;;;;7.95;4.45;;;20.00;99.90;;;;;;5051414;28;20288;-59
2023/07/17 06:42:33;;;;;;;8.45;4.72;;;20.10;99.90;;;;;;5051922;28;20205;-61
2023/07/17 06:45:01;;;;;;;6.80;4.68;;;20.20;99.90;;;;;;5050883;28;20567;-61
2023/07/17 06:47:29;;;;;;;8.02;5.15;;;20.10;99.90;;;;;;5050442;28;20259;-61
2023/07/17 06:50:07;;;;;;;9.57;5.05;;;20.00;99.90;;;;;;5051569;28;20204;-61
2023/07/17 06:52:37;;;;;;;8.02;4.85;;;19.90;99.90;;;;;;5051226;28;20249;-61
2023/07/17 06:55:07;;;;;;;7.55;4.78;;;19.80;99.90;;;;;;5051229;28;20224;-61
2023/07/17 06:57:35;;;;;;;10.20;5.40;;;19.60;99.90;;;;;;5051463;28;20288;-61
2023/07/17 07:00:05;;;;;;;9.80;4.90;;;19.50;99.90;;;;;;5051538;28;20674;-61
2023/07/17 07:02:33;;;;;;;9.68;5.40;;;19.50;99.90;;;;;;5051272;28;20209;-61
2023/07/17 07:05:02;;;;;;;12.73;5.03;;;19.50;99.90;;;;;;5051065;28;20201;-61
2023/07/17 07:07:31;;;;;;;10.32;4.85;;;19.60;99.90;;;;;;5051553;28;20229;-61
2023/07/17 07:09:59;;;;;;;12.10;5.32;;;19.70;99.90;;;;;;5035189;28;20210;-61
2023/07/17 07:12:27;;;;;;;9.30;5.75;;;19.80;99.90;;;;;;5051297;28;20197;-60
2023/07/17 07:14:55;;;;;;;7.10;5.13;;;19.90;99.90;;;;;;5050974;28;20312;-61
2023/07/17 07:17:23;;;;;;;10.77;4.78;;;19.90;99.90;;;;;;5051044;28;20210;-61
2023/07/17 07:19:51;;;;;;;10.65;5.38;;;19.90;99.90;;;;;;5051168;28;20221;-61
2023/07/17 07:22:19;;;;;;;9.55;5.03;;;19.90;99.90;;;;;;5051299;28;20201;-61
2023/07/17 07:24:48;;;;;;;8.90;4.93;;;19.90;99.90;;;;;;5051029;28;20229;-61
2023/07/17 07:27:16;;;;;;;9.07;4.65;;;20.00;99.90;;;;;;5051122;28;20284;-61
2023/07/17 07:29:44;;;;;;;10.00;5.03;;;20.00;99.90;;;;;;5050961;28;20671;-61
2023/07/17 07:32:12;;;;;;;11.88;4.78;;;20.10;99.90;;;;;;5050936;28;20271;-61
2023/07/17 07:34:40;;;;;;;13.88;4.38;;;20.10;99.90;;;;;;5050070;28;20704;-61
2023/07/17 07:37:08;;;;;;;8.43;5.07;;;20.10;99.90;;;;;;5052973;28;20236;-61
2023/07/17 07:39:36;;;;;;;8.05;4.85;;;20.20;99.90;;;;;;5047477;28;20792;-61
2023/07/17 07:42:06;;;;;;;9.27;4.60;;;20.20;99.90;;;;;;5052517;28;20209;-62
2023/07/17 07:44:34;;;;;;;9.23;5.00;;;20.20;99.90;;;;;;5056094;28;20256;-61
2023/07/17 07:47:02;;;;;;;12.05;4.80;;;20.30;99.90;;;;;;5053945;28;20205;-61
2023/07/17 07:49:30;;;;;;;11.05;4.97;;;20.40;99.90;;;;;;5050902;28;20252;-62
2023/07/17 07:51:58;;;;;;;10.25;4.65;;;20.50;99.90;;;;;;5050652;28;20260;-61
2023/07/17 07:54:26;;;;;;;10.38;5.07;;;20.60;99.90;;;;;;5050252;28;20217;-62
2023/07/17 07:56:54;;;;;;;11.95;4.97;;;20.70;99.90;;;;;;5059395;28;20216;-61
2023/07/17 07:59:23;;;;;;;8.02;4.80;;;21.00;99.90;;;;;;5073165;22;20770;-56
2023/07/17 08:01:51;;;;;;;10.75;4.80;;;21.20;99.90;;;;;;5070716;28;20274;-57
2023/07/17 08:04:19;;;;;;;8.93;4.90;;;21.30;99.90;;;;;;5070178;28;20672;-56
2023/07/17 08:06:47;;;;;;;5.25;4.40;;;21.50;99.90;;;;;;5070618;28;20259;-58
2023/07/17 08:09:15;;;;;;;9.13;4.05;;;21.50;99.90;;;;;;5070992;28;20221;-56
2023/07/17 08:11:43;;;;;;;8.80;3.70;;;21.40;99.90;;;;;;5070932;28;20731;-57
2023/07/17 08:14:11;;;;;;;9.55;4.05;;;21.50;99.90;;;;;;5071050;28;20252;-58
2023/07/17 08:16:40;;;;;;;7.65;3.85;;;21.50;99.90;;;;;;5070648;28;20258;-58
2023/07/17 08:19:08;;;;;;;8.63;4.22;;;21.60;99.90;;;;;;5070895;28;20307;-55
2023/07/17 08:21:36;;;;;;;7.93;4.10;;;21.70;99.90;;;;;;5070588;28;20291;-54
2023/07/17 08:24:05;;;;;;;7.10;3.88;;;21.80;99.90;;;;;;5059654;28;20215;-55
2023/07/17 08:26:33;;;;;;;10.75;4.50;;;21.90;99.90;;;;;;5070367;28;20201;-56
2023/07/17 08:29:02;;;;;;;10.00;4.43;;;22.10;99.90;;;;;;5070950;28;20217;-56
2023/07/17 08:31:31;;;;;;;7.18;3.83;;;22.20;99.90;;;;;;5071982;28;20636;-55
2023/07/17 08:34:01;;;;;;;10.73;3.78;;;22.30;99.90;;;;;;5057852;28;20267;-54
2023/07/17 08:36:29;;;;;;;8.75;4.03;;;22.40;99.90;;;;;;5072825;28;20240;-58
2023/07/17 08:38:57;;;;;;;7.00;3.72;;;22.40;99.90;;;;;;5073876;28;20311;-55
2023/07/17 08:41:25;;;;;;;8.18;3.67;;;22.60;99.90;;;;;;5074351;28;20200;-55
2023/07/17 08:43:53;;;;;;;8.82;3.90;;;22.70;99.90;;;;;;5073845;28;20216;-54
2023/07/17 08:46:21;;;;;;;11.23;4.05;;;22.70;99.90;;;;;;5073876;28;20209;-55
2023/07/17 08:48:49;;;;;;;7.72;3.95;;;22.80;99.90;;;;;;5074813;28;20240;-55
2023/07/17 08:51:19;;;;;;;7.13;3.78;;;22.90;99.90;;;;;;5073190;28;20231;-55
2023/07/17 08:53:47;;;;;;;9.13;3.55;;;23.00;99.90;;;;;;5072015;28;20197;-55
2023/07/17 08:56:15;;;;;;;7.32;3.28;;;23.10;99.90;;;;;;5073765;28;20232;-55
2023/07/17 08:58:43;;;;;;;8.00;4.32;;;23.20;99.90;;;;;;5073351;28;20230;-56
2023/07/17 09:01:11;;;;;;;9.73;2.97;;;23.30;99.90;;;;;;5071796;28;20208;-56
2023/07/17 09:03:38;;;;;;;7.93;3.45;;;23.40;99.90;;;;;;5070439;28;20255;-55
2023/07/17 09:06:07;;;;;;;6.95;3.55;;;23.50;99.90;;;;;;5073288;28;20209;-56
2023/07/17 09:08:37;;;;;;;10.45;3.47;;;23.70;99.90;;;;;;5073887;28;20286;-56
2023/07/17 09:11:06;;;;;;;9.32;3.03;;;23.80;99.90;;;;;;5073710;28;20247;-58
2023/07/17 09:13:38;;;;;;;7.30;2.70;;;23.90;99.90;;;;;;5073475;28;20205;-55
2023/07/17 09:16:14;;;;;;;7.38;3.10;;;24.00;99.90;;;;;;5072941;28;20227;-57
2023/07/17 09:18:42;;;;;;;6.28;3.25;;;24.10;99.90;;;;;;5072862;28;20232;-57
2023/07/17 09:21:12;;;;;;;6.80;3.38;;;24.30;99.90;;;;;;5072541;28;20292;-55
2023/07/17 09:23:44;;;;;;;8.63;3.20;;;24.40;99.90;;;;;;5072924;28;20660;-57
2023/07/17 09:26:13;;;;;;;6.45;2.83;;;24.60;99.90;;;;;;5072613;28;20201;-56
2023/07/17 09:28:48;;;;;;;8.35;3.65;;;24.60;99.90;;;;;;5072880;28;20304;-56
2023/07/17 09:31:22;;;;;;;9.48;3.28;;;24.80;99.90;;;;;;5079117;28;20313;-55
2023/07/17 09:33:50;;;;;;;6.85;2.90;;;24.80;99.90;;;;;;5073076;28;20204;-60
2023/07/17 09:36:18;;;;;;;6.18;2.88;;;24.90;99.90;;;;;;5072785;28;20220;-56
2023/07/17 09:38:51;;;;;;;4.55;3.08;;;25.10;99.90;;;;;;5072852;28;20229;-57
2023/07/17 09:41:21;;;;;;;6.07;2.95;;;25.30;99.90;;;;;;5072751;28;20232;-58
2023/07/17 09:43:52;;;;;;;4.90;2.83;;;25.40;99.90;;;;;;5072954;28;20262;-56
2023/07/17 09:46:20;;;;;;;4.40;2.80;;;25.50;99.90;;;;;;5072721;28;20288;-59
2023/07/17 09:48:48;;;;;;;6.70;2.95;;;25.70;99.90;;;;;;5072666;28;20630;-59
2023/07/17 09:51:18;;;;;;;8.85;3.15;;;25.80;99.90;;;;;;5072809;28;20228;-58
2023/07/17 09:53:47;;;;;;;4.25;2.75;;;25.80;99.90;;;;;;5072558;28;20223;-57
2023/07/17 09:56:17;;;;;;;3.78;3.03;;;25.90;99.90;;;;;;5072382;28;20319;-58
2023/07/17 09:58:46;;;;;;;4.95;2.92;;;25.90;99.90;;;;;;5079238;28;20220;-58
2023/07/17 10:01:15;;;;;;;2.92;2.50;;;26.10;99.90;;;;;;5072659;28;20197;-56
2023/07/17 10:03:45;;;;;;;10.10;2.78;;;26.30;99.90;;;;;;5072221;28;20207;-57
2023/07/17 10:06:14;;;;;;;5.85;3.08;;;26.50;99.90;;;;;;5072000;28;20192;-58
2023/07/17 10:08:43;;;;;;;4.32;2.83;;;26.60;97.50;;;;;;5078672;28;20216;-57
2023/07/17 10:11:11;;;;;;;3.08;2.72;;;26.60;97.10;;;;;;5079029;28;20733;-56
2023/07/17 10:13:40;;;;;;;5.32;3.17;;;26.80;97.30;;;;;;5074577;28;20641;-57
2023/07/17 10:16:08;;;;;;;7.22;3.55;;;26.90;97.00;;;;;;5071696;28;20316;-59
2023/07/17 10:18:38;;;;;;;5.50;2.65;;;26.90;97.00;;;;;;5071639;28;20217;-59
2023/07/17 10:21:06;;;;;;;5.50;3.00;;;27.10;95.60;;;;;;5073956;28;20299;-56
2023/07/17 10:23:34;;;;;;;4.50;2.78;;;27.20;95.30;;;;;;5071405;28;20319;-58
2023/07/17 10:26:08;;;;;;;6.20;3.22;;;27.30;96.20;;;;;;5071936;28;20201;-58
2023/07/17 10:28:36;;;;;;;5.22;2.90;;;27.60;94.80;;;;;;5072399;28;20287;-56
2023/07/17 10:31:11;;;;;;;3.20;2.90;;;27.70;92.80;;;;;;5072204;28;20201;-57
2023/07/17 10:33:39;;;;;;;6.78;3.10;;;27.90;92.30;;;;;;5072179;28;20200;-58
2023/07/17 10:36:07;;;;;;;3.72;2.78;;;27.80;91.50;;;;;;5071909;28;20225;-57
2023/07/17 10:38:37;;;;;;;5.57;2.80;;;27.80;91.40;;;;;;5071821;28;20288;-57
2023/07/17 10:41:06;;;;;;;5.95;2.97;;;27.80;91.50;;;;;;5072314;28;20204;-58
2023/07/17 10:43:35;;;;;;;4.63;2.92;;;28.10;90.90;;;;;;5071533;28;20204;-57
2023/07/17 10:46:08;;;;;;;5.97;2.75;;;28.10;90.60;;;;;;5070982;28;20308;-60
2023/07/17 10:48:37;;;;;;;5.90;2.80;;;28.10;90.20;;;;;;5071973;28;20295;-57
2023/07/17 10:51:05;;;;;;;5.82;3.42;;;27.80;90.80;;;;;;5071994;28;20283;-57
2023/07/17 10:53:33;;;;;;;3.40;2.83;;;27.50;91.60;;;;;;5069473;28;20629;-58
2023/07/17 10:56:01;;;;;;;7.13;3.30;;;27.10;91.50;;;;;;5072342;28;20271;-56
2023/07/17 10:58:29;;;;;;;4.90;2.83;;;26.70;92.40;;;;;;5071119;28;20648;-56
2023/07/17 11:00:57;;;;;;;3.40;2.78;;;26.50;93.50;;;;;;5071743;28;20228;-58
2023/07/17 11:03:26;;;;;;;6.00;2.88;;;26.30;93.70;;;;;;5071726;28;20205;-57
2023/07/17 11:05:56;;;;;;;5.40;2.53;;;26.10;94.60;;;;;;5069864;28;20669;-58
2023/07/17 11:08:25;;;;;;;7.13;2.97;;;25.90;94.90;;;;;;5068394;28;20288;-56
2023/07/17 11:10:53;;;;;;;5.05;3.15;;;25.80;94.70;;;;;;5071400;28;20286;-58
2023/07/17 11:13:21;;;;;;;6.43;2.83;;;26.10;95.50;;;;;;5071784;28;20258;-58
2023/07/17 11:15:49;;;;;;;5.80;2.63;;;26.60;93.60;;;;;;5071332;28;20255;-58
2023/07/17 11:18:17;;;;;;;4.13;2.67;;;26.90;91.60;;;;;;5071313;28;20200;-57
2023/07/17 11:20:45;;;;;;;9.10;2.75;;;27.40;92.10;;;;;;5070128;28;20243;-57
2023/07/17 11:23:15;;;;;;;5.68;2.60;;;27.80;92.00;;;;;;5071075;28;20232;-58
2023/07/17 11:25:43;;;;;;;4.43;2.63;;;28.20;91.80;;;;;;5071280;28;20196;-59
2023/07/17 11:28:11;;;;;;;4.82;2.85;;;28.40;90.90;;;;;;5071101;28;20287;-59
2023/07/17 11:30:39;;;;;;;4.93;2.97;;;28.80;91.40;;;;;;5070188;28;20220;-59
2023/07/17 11:33:08;;;;;;;2.50;2.30;;;29.20;90.80;;;;;;5071318;28;20197;-57
2023/07/17 11:35:40;;;;;;;5.65;2.85;;;29.20;88.00;;;;;;5070972;28;20695;-58
2023/07/17 11:38:08;;;;;;;3.33;2.75;;;29.20;86.60;;;;;;5071201;28;20204;-57
2023/07/17 11:40:57;;;;;;;3.00;2.67;;;29.20;86.10;;;;;;5071488;28;20252;-56
2023/07/17 11:43:29;;;;;;;4.57;2.95;;;29.20;86.80;;;;;;5071479;28;20201;-60
2023/07/17 11:46:01;;;;;;;6.10;3.08;;;29.10;88.10;;;;;;5071204;28;20227;-58
2023/07/17 11:48:30;;;;;;;3.95;2.78;;;29.10;87.80;;;;;;5071452;28;20204;-59
2023/07/17 11:50:58;;;;;;;5.30;2.78;;;29.40;87.70;;;;;;5071586;28;20330;-57
2023/07/17 11:53:26;;;;;;;2.70;2.50;;;29.40;86.80;;;;;;5070985;28;20698;-59
2023/07/17 11:55:55;;;;;;;5.22;2.78;;;29.60;89.80;;;;;;5070936;28;20216;-58
2023/07/17 11:58:29;;;;;;;3.10;2.80;;;29.30;84.50;;;;;;5071043;28;20240;-57
2023/07/17 12:00:57;;;;;;;7.45;2.50;;;29.40;85.00;;;;;;5070271;28;20737;-58
2023/07/17 12:03:25;;;;;;;3.83;2.80;;;29.60;84.20;;;;;;5070990;28;20227;-58
2023/07/17 12:05:53;;;;;;;5.25;3.00;;;29.40;84.00;;;;;;5072962;28;20612;-57
2023/07/17 12:08:21;;;;;;;3.75;2.67;;;29.00;84.50;;;;;;5074730;28;20646;-58
2023/07/17 12:10:49;;;;;;;3.78;2.60;;;29.00;85.30;;;;;;5074884;28;20209;-56
2023/07/17 12:13:17;;;;;;;6.28;2.90;;;29.20;84.70;;;;;;5073225;28;20236;-58
2023/07/17 12:15:46;;;;;;;5.07;2.67;;;29.40;85.10;;;;;;5074123;28;20242;-55
2023/07/17 12:18:14;;;;;;;6.18;3.15;;;29.20;84.40;;;;;;5074794;28;20663;-58
2023/07/17 12:20:42;;;;;;;5.03;2.70;;;29.30;84.70;;;;;;5074854;28;20274;-59
2023/07/17 12:23:10;;;;;;;7.65;2.88;;;29.80;85.40;;;;;;5074436;28;20205;-59
2023/07/17 12:25:41;;;;;;;5.05;3.08;;;29.90;82.60;;;;;;5074301;28;20197;-59
2023/07/17 12:28:09;;;;;;;7.30;2.92;;;30.00;83.30;;;;;;5073868;28;20208;-57
2023/07/17 12:30:37;;;;;;;5.35;2.38;;;30.00;83.50;;;;;;5073454;28;20307;-57
2023/07/17 12:33:07;;;;;;;9.15;2.97;;;29.90;82.00;;;;;;5075737;28;20205;-57
2023/07/17 12:35:35;;;;;;;3.42;2.55;;;29.90;82.00;;;;;;5079486;28;20211;-58
2023/07/17 12:38:04;;;;;;;2.80;2.50;;;29.90;81.30;;;;;;5074960;28;20232;-57
2023/07/17 12:40:32;;;;;;;5.55;2.42;;;29.90;81.90;;;;;;5073541;28;20755;-57
2023/07/17 12:42:59;;;;;;;5.88;2.78;;;29.90;82.30;;;;;;5073740;28;20657;-57
2023/07/17 12:45:27;;;;;;;5.10;2.50;;;29.90;80.60;;;;;;5073386;28;20239;-58
2023/07/17 12:47:58;;;;;;;3.85;2.50;;;30.00;81.80;;;;;;5073593;28;20197;-58
2023/07/17 12:50:28;;;;;;;4.10;2.30;;;30.30;81.00;;;;;;5073894;28;20229;-58
2023/07/17 12:52:56;;;;;;;5.07;2.40;;;30.80;80.60;;;;;;5073526;28;20240;-57